createdAt,value
2022-08-17T00:02:26.590Z,12.90
2022-08-17T00:04:55.402Z,10.90
2022-08-17T00:07:22.997Z,15.30
2022-08-17T00:09:50.615Z,12.10
2022-08-17T00:12:42.870Z,8.60
2022-08-17T00:15:10.617Z,10.00
2022-08-17T00:17:38.382Z,10.90
2022-08-17T00:20:06.552Z,7.50
2022-08-17T00:25:13.304Z,11.10
2022-08-17T00:27:40.752Z,10.60
2022-08-17T00:30:09.725Z,12.40
2022-08-17T00:33:12.354Z,11.60
2022-08-17T00:35:28.175Z,12.40
2022-08-17T00:37:55.816Z,15.20
2022-08-17T00:40:24.601Z,13.70
2022-08-17T00:42:53.629Z,13.20
2022-08-17T00:45:21.159Z,10.80
2022-08-17T00:47:49.864Z,10.00
2022-08-17T00:50:18.531Z,12.80
2022-08-17T00:52:54.989Z,12.80
2022-08-17T00:55:23.687Z,13.30
2022-08-17T00:57:55.427Z,12.20
2022-08-17T01:00:33.164Z,12.90
2022-08-17T01:03:21.993Z,12.00
2022-08-17T01:05:50.081Z,10.50
2022-08-17T01:08:19.884Z,13.30
2022-08-17T01:10:59.779Z,14.10
2022-08-17T01:13:41.889Z,13.20
2022-08-17T01:16:29.789Z,11.40
2022-08-17T01:19:05.581Z,14.30
2022-08-17T01:21:50.480Z,13.30
2022-08-17T01:24:17.868Z,12.40
2022-08-17T01:26:45.493Z,11.20
2022-08-17T01:29:12.978Z,12.00
2022-08-17T01:31:46.071Z,20.30
2022-08-17T01:34:14.420Z,14.50
2022-08-17T01:36:43.315Z,13.90
2022-08-17T01:39:16.711Z,14.60
2022-08-17T01:41:43.957Z,13.40
2022-08-17T01:44:11.109Z,15.00
2022-08-17T01:46:38.706Z,15.20
2022-08-17T01:49:07.204Z,13.40
2022-08-17T01:51:34.731Z,11.40
2022-08-17T01:54:05.748Z,14.10
2022-08-17T01:56:34.434Z,12.70
2022-08-17T01:59:01.707Z,11.90
2022-08-17T02:01:30.808Z,14.20
2022-08-17T02:04:00.786Z,12.00
2022-08-17T02:06:30.651Z,10.80
2022-08-17T02:09:02.448Z,18.10
2022-08-17T02:11:34.982Z,12.40
2022-08-17T02:14:02.702Z,12.90
2022-08-17T02:16:37.931Z,13.20
2022-08-17T02:19:07.640Z,11.90
2022-08-17T02:21:36.104Z,13.20
2022-08-17T02:24:03.813Z,19.50
2022-08-17T02:26:31.974Z,13.20
2022-08-17T02:28:59.227Z,13.00
2022-08-17T02:31:26.377Z,10.90
2022-08-17T02:34:04.049Z,10.90
2022-08-17T02:36:35.466Z,10.70
2022-08-17T02:39:04.463Z,12.50
2022-08-17T02:41:31.768Z,13.20
2022-08-17T02:43:59.123Z,11.40
2022-08-17T02:46:26.613Z,12.60
2022-08-17T02:48:53.835Z,12.60
2022-08-17T02:51:21.005Z,12.10
2022-08-17T02:53:48.541Z,12.00
2022-08-17T02:56:15.793Z,12.60
2022-08-17T02:58:43.045Z,14.90
2022-08-17T03:01:10.781Z,12.40
2022-08-17T03:03:38.394Z,10.60
2022-08-17T03:06:06.542Z,8.30
2022-08-17T03:08:34.104Z,14.40
2022-08-17T03:11:01.359Z,13.50
2022-08-17T03:13:28.614Z,13.80
2022-08-17T03:15:55.882Z,12.10
2022-08-17T03:18:25.387Z,13.60
2022-08-17T03:20:59.584Z,14.50
2022-08-17T03:23:27.480Z,12.30
2022-08-17T03:25:54.826Z,12.00
2022-08-17T03:28:22.769Z,11.30
2022-08-17T03:30:51.434Z,10.20
2022-08-17T03:33:19.217Z,9.90
2022-08-17T03:35:46.673Z,11.40
2022-08-17T03:38:15.355Z,10.30
2022-08-17T03:40:57.602Z,11.10
2022-08-17T03:43:28.708Z,9.80
2022-08-17T03:46:28.143Z,17.40
2022-08-17T03:49:25.574Z,11.70
2022-08-17T03:52:12.903Z,9.60
2022-08-17T03:54:59.299Z,12.00
2022-08-17T03:57:26.546Z,11.20
2022-08-17T03:59:54.512Z,8.10
2022-08-17T04:02:27.859Z,15.10
2022-08-17T04:04:55.271Z,10.80
2022-08-17T04:07:25.492Z,12.40
2022-08-17T04:09:52.748Z,11.00
2022-08-17T04:12:21.225Z,11.00
2022-08-17T04:14:53.465Z,14.20
2022-08-17T04:17:27.193Z,10.80
2022-08-17T04:22:30.666Z,16.20
2022-08-17T04:25:06.147Z,12.70
2022-08-17T04:27:33.647Z,13.50
2022-08-17T04:30:01.378Z,9.80
2022-08-17T04:33:03.551Z,19.20
2022-08-17T04:35:21.274Z,11.90
2022-08-17T04:37:48.528Z,20.50
2022-08-17T04:40:35.242Z,19.20
2022-08-17T04:43:18.807Z,18.00
2022-08-17T04:45:55.342Z,19.60
2022-08-17T04:48:36.690Z,15.00
2022-08-17T04:51:07.523Z,24.30
2022-08-17T04:53:34.728Z,19.70
2022-08-17T04:56:01.957Z,21.50
2022-08-17T04:58:29.231Z,21.70
2022-08-17T05:00:56.514Z,18.70
2022-08-17T05:03:23.728Z,19.00
2022-08-17T05:05:51.825Z,18.70
2022-08-17T05:08:20.984Z,20.20
2022-08-17T05:10:48.660Z,17.80
2022-08-17T05:13:26.243Z,24.30
2022-08-17T05:15:55.798Z,18.60
2022-08-17T05:18:24.605Z,21.60
2022-08-17T05:20:52.605Z,19.80
2022-08-17T05:23:20.814Z,17.30
2022-08-17T05:25:51.753Z,14.70
2022-08-17T05:28:24.122Z,17.70
2022-08-17T05:30:54.515Z,13.30
2022-08-17T05:33:27.094Z,12.20
2022-08-17T05:35:56.630Z,20.20
2022-08-17T05:38:29.887Z,17.80
2022-08-17T05:40:58.471Z,27.40
2022-08-17T05:43:33.655Z,16.90
2022-08-17T05:46:16.365Z,30.10
2022-08-17T05:48:48.594Z,27.50
2022-08-17T05:51:34.173Z,28.20
2022-08-17T05:54:50.807Z,27.60
2022-08-17T05:57:53.188Z,24.70
2022-08-17T06:03:16.216Z,21.40
2022-08-17T06:05:46.663Z,20.10
2022-08-17T06:08:31.017Z,23.40
2022-08-17T06:11:19.921Z,20.30
2022-08-17T06:14:05.660Z,21.10
2022-08-17T06:16:41.545Z,24.10
2022-08-17T06:19:39.792Z,21.30
2022-08-17T06:22:07.678Z,24.50
2022-08-17T06:25:14.032Z,23.80
2022-08-17T06:27:57.464Z,24.00
2022-08-17T06:30:35.750Z,22.70
2022-08-17T06:33:22.684Z,26.60
2022-08-17T06:39:04.946Z,22.70
2022-08-17T06:41:49.769Z,19.80
2022-08-17T06:44:49.900Z,20.10
2022-08-17T06:47:38.548Z,18.50
2022-08-17T06:50:20.849Z,16.70
2022-08-17T06:52:55.422Z,23.00
2022-08-17T06:55:38.231Z,23.20
2022-08-17T07:00:46.463Z,16.50
2022-08-17T07:03:44.698Z,21.30
2022-08-17T07:06:21.990Z,17.40
2022-08-17T07:09:05.366Z,21.70
2022-08-17T07:11:42.576Z,19.30
2022-08-17T07:14:36.894Z,19.10
2022-08-17T07:17:09.798Z,23.60
2022-08-17T07:19:41.982Z,23.40
2022-08-17T07:25:41.305Z,19.20
2022-08-17T07:28:13.808Z,21.80
2022-08-17T07:31:00.784Z,17.50
2022-08-17T07:37:22.032Z,16.10
2022-08-17T07:40:15.568Z,16.50
2022-08-17T07:42:41.867Z,18.90
2022-08-17T07:45:32.183Z,19.90
2022-08-17T07:48:18.112Z,19.10
2022-08-17T07:50:49.593Z,21.00
2022-08-17T07:53:25.477Z,17.00
2022-08-17T07:55:54.368Z,18.30
2022-08-17T07:58:23.753Z,17.10
2022-08-17T08:01:13.524Z,11.80
2022-08-17T08:03:43.382Z,15.10
2022-08-17T08:06:23.373Z,18.80
2022-08-17T08:08:52.721Z,14.10
2022-08-17T08:11:40.128Z,12.70
2022-08-17T08:14:34.225Z,16.50
2022-08-17T08:17:03.977Z,14.10
2022-08-17T08:19:33.254Z,13.50
2022-08-17T08:22:14.874Z,12.50
2022-08-17T08:24:58.170Z,13.50
2022-08-17T08:27:38.971Z,11.90
2022-08-17T08:30:10.399Z,12.00
2022-08-17T08:33:11.267Z,12.70
2022-08-17T08:36:56.938Z,12.60
2022-08-17T08:39:16.370Z,13.00
2022-08-17T08:45:20.095Z,13.10
2022-08-17T08:51:10.548Z,11.20
2022-08-17T08:53:50.525Z,10.30
2022-08-17T08:56:36.915Z,10.30
2022-08-17T08:59:16.452Z,11.70
2022-08-17T09:01:49.171Z,16.10
2022-08-17T09:05:10.393Z,12.20
2022-08-17T09:11:28.088Z,9.80
2022-08-17T09:14:21.798Z,11.20
2022-08-17T09:17:14.376Z,9.50
2022-08-17T09:19:53.955Z,7.10
2022-08-17T09:22:25.930Z,7.70
2022-08-17T09:25:07.258Z,10.20
2022-08-17T09:27:47.829Z,16.10
2022-08-17T09:30:16.038Z,14.20
2022-08-17T09:32:45.734Z,15.90
2022-08-17T09:35:32.775Z,8.70
2022-08-17T09:38:36.539Z,8.30
2022-08-17T09:41:23.862Z,9.50
2022-08-17T09:43:55.307Z,7.90
2022-08-17T09:46:25.642Z,8.40
2022-08-17T09:49:32.837Z,12.60
2022-08-17T09:52:14.134Z,10.90
2022-08-17T09:54:50.751Z,12.60
2022-08-17T10:00:46.960Z,12.30
2022-08-17T10:03:28.831Z,9.70
2022-08-17T10:06:25.226Z,12.00
2022-08-17T10:09:07.564Z,13.60
2022-08-17T10:12:17.872Z,14.40
2022-08-17T10:15:08.117Z,15.30
2022-08-17T10:18:21.929Z,16.40
2022-08-17T10:21:21.143Z,16.80
2022-08-17T10:24:10.634Z,15.70
2022-08-17T10:26:55.335Z,16.00
2022-08-17T10:29:30.978Z,15.10
2022-08-17T10:32:48.222Z,14.50
2022-08-17T10:35:43.615Z,15.30
2022-08-17T10:38:32.361Z,13.40
2022-08-17T10:41:18.233Z,18.40
2022-08-17T10:44:38.660Z,19.20
2022-08-17T10:47:18.464Z,23.20
2022-08-17T10:49:49.747Z,19.00
2022-08-17T10:52:20.182Z,17.90
2022-08-17T10:54:48.979Z,17.10
2022-08-17T10:57:29.833Z,17.50
2022-08-17T10:59:57.912Z,22.00
2022-08-17T11:02:38.975Z,24.90
2022-08-17T11:05:16.355Z,24.20
2022-08-17T11:07:46.456Z,19.40
2022-08-17T11:10:33.061Z,20.70
2022-08-17T11:13:22.125Z,18.90
2022-08-17T11:16:08.474Z,20.60
2022-08-17T11:19:14.584Z,19.20
2022-08-17T11:21:52.896Z,13.30
2022-08-17T11:24:32.680Z,16.60
2022-08-17T11:27:30.109Z,15.80
2022-08-17T11:30:08.300Z,21.20
2022-08-17T11:32:47.492Z,20.70
2022-08-17T11:35:21.357Z,17.00
2022-08-17T11:38:03.260Z,20.10
2022-08-17T11:40:46.778Z,15.10
2022-08-17T11:43:49.469Z,16.00
2022-08-17T11:46:55.279Z,17.30
2022-08-17T11:50:01.890Z,17.90
2022-08-17T11:52:39.846Z,17.30
2022-08-17T11:55:34.701Z,13.80
2022-08-17T11:58:36.188Z,14.70
2022-08-17T12:01:29.713Z,15.10
2022-08-17T12:04:19.309Z,11.80
2022-08-17T12:06:52.731Z,15.50
2022-08-17T12:09:22.641Z,22.80
2022-08-17T12:12:13.817Z,20.10
2022-08-17T12:15:11.535Z,23.30
2022-08-17T12:17:42.605Z,16.90
2022-08-17T12:20:28.114Z,20.60
2022-08-17T12:23:21.064Z,21.60
2022-08-17T12:25:52.873Z,29.90
2022-08-17T12:28:29.842Z,23.00
2022-08-17T12:31:02.901Z,23.80
2022-08-17T12:33:30.153Z,22.40
2022-08-17T12:36:05.844Z,30.60
2022-08-17T12:38:34.892Z,33.60
2022-08-17T12:43:20.787Z,28.60
2022-08-17T12:45:57.439Z,24.10
2022-08-17T12:48:26.427Z,24.20
2022-08-17T12:51:03.129Z,24.10
2022-08-17T12:53:31.485Z,22.20
2022-08-17T12:55:59.673Z,21.00
2022-08-17T12:58:31.807Z,24.10
2022-08-17T13:01:04.542Z,27.00
2022-08-17T13:06:08.188Z,28.60
2022-08-17T13:08:43.596Z,27.20
2022-08-17T13:11:19.596Z,27.50
2022-08-17T13:13:55.493Z,28.80
2022-08-17T13:16:27.543Z,27.50
2022-08-17T13:18:59.845Z,61.00
2022-08-17T13:21:30.676Z,21.40
2022-08-17T13:24:01.339Z,25.90
2022-08-17T13:26:36.333Z,20.70
2022-08-17T13:29:27.034Z,17.60
2022-08-17T13:31:58.879Z,25.00
2022-08-17T13:35:13.082Z,27.00
2022-08-17T13:37:34.782Z,17.00
2022-08-17T13:40:11.432Z,15.80
2022-08-17T13:42:52.770Z,10.50
2022-08-17T13:45:39.596Z,11.10
2022-08-17T13:48:13.743Z,13.30
2022-08-17T13:50:56.846Z,13.80
2022-08-17T13:53:50.909Z,29.60
2022-08-17T13:56:37.558Z,9.90
2022-08-17T13:59:10.642Z,12.30
2022-08-17T14:01:53.371Z,10.70
2022-08-17T14:04:28.904Z,12.60
2022-08-17T14:07:19.813Z,12.50
2022-08-17T14:09:55.105Z,45.50
2022-08-17T14:12:25.276Z,17.30
2022-08-17T14:14:55.218Z,12.10
2022-08-17T14:17:25.311Z,13.40
2022-08-17T14:19:55.124Z,14.60
2022-08-17T14:22:28.516Z,10.20
2022-08-17T14:24:57.678Z,12.30
2022-08-17T14:27:28.450Z,8.60
2022-08-17T14:29:56.129Z,12.50
2022-08-17T14:32:30.457Z,12.70
2022-08-17T14:34:59.830Z,10.00
2022-08-17T14:37:28.239Z,9.20
2022-08-17T14:40:04.827Z,12.60
2022-08-17T14:42:33.330Z,10.70
2022-08-17T14:45:00.727Z,14.30
2022-08-17T14:47:27.995Z,14.40
2022-08-17T14:49:55.222Z,17.00
2022-08-17T14:52:22.476Z,9.70
2022-08-17T14:54:53.009Z,8.50
2022-08-17T14:57:34.187Z,14.10
2022-08-17T15:00:02.046Z,13.50
2022-08-17T15:02:30.938Z,12.80
2022-08-17T15:04:59.936Z,8.60
2022-08-17T15:07:30.345Z,8.60
2022-08-17T15:10:03.345Z,8.70
2022-08-17T15:12:34.050Z,10.40
2022-08-17T15:15:04.690Z,10.50
2022-08-17T15:17:45.168Z,10.70
2022-08-17T15:20:21.045Z,13.00
2022-08-17T15:22:55.665Z,12.40
2022-08-17T15:25:24.514Z,9.80
2022-08-17T15:27:53.957Z,16.30
2022-08-17T15:30:26.375Z,8.20
2022-08-17T15:32:56.947Z,8.00
2022-08-17T15:35:27.572Z,9.00
2022-08-17T15:37:58.275Z,9.40
2022-08-17T15:40:28.123Z,10.60
2022-08-17T15:42:55.474Z,10.20
2022-08-17T15:45:27.036Z,9.50
2022-08-17T15:47:54.281Z,9.80
2022-08-17T15:50:21.532Z,10.50
2022-08-17T15:52:55.042Z,17.60
2022-08-17T15:55:24.236Z,11.00
2022-08-17T15:57:52.402Z,14.70
2022-08-17T16:00:20.308Z,14.90
2022-08-17T16:03:45.451Z,13.40
2022-08-17T16:05:36.003Z,12.80
2022-08-17T16:08:04.865Z,10.60
2022-08-17T16:10:35.746Z,12.00
2022-08-17T16:13:03.932Z,12.90
2022-08-17T16:15:33.612Z,11.00
2022-08-17T16:18:00.842Z,11.60
2022-08-17T16:20:28.082Z,10.30
2022-08-17T16:22:55.919Z,14.00
2022-08-17T16:25:50.318Z,14.70
2022-08-17T16:28:18.208Z,10.80
2022-08-17T16:30:45.816Z,11.50
2022-08-17T16:33:13.014Z,13.30
2022-08-17T16:35:42.352Z,19.30
2022-08-17T16:38:09.980Z,17.90
2022-08-17T16:40:37.576Z,19.40
2022-08-17T16:43:10.773Z,15.80
2022-08-17T16:45:40.948Z,15.90
2022-08-17T16:48:09.151Z,12.60
2022-08-17T16:50:36.764Z,13.40
2022-08-17T16:53:06.771Z,14.70
2022-08-17T16:55:35.916Z,19.20
2022-08-17T16:58:04.790Z,12.20
2022-08-17T17:00:33.660Z,17.00
2022-08-17T17:03:19.743Z,13.30
2022-08-17T17:06:15.422Z,13.50
2022-08-17T17:08:57.493Z,15.70
2022-08-17T17:11:33.965Z,13.10
2022-08-17T17:14:04.071Z,13.30
2022-08-17T17:16:45.943Z,16.20
2022-08-17T17:19:34.519Z,15.30
2022-08-17T17:22:15.491Z,14.90
2022-08-17T17:25:01.694Z,12.40
2022-08-17T17:27:43.382Z,14.80
2022-08-17T17:30:40.862Z,15.50
2022-08-17T17:33:37.586Z,12.60
2022-08-17T17:36:15.085Z,13.20
2022-08-17T17:38:47.997Z,12.80
2022-08-17T17:41:26.113Z,18.50
2022-08-17T17:44:12.375Z,12.30
2022-08-17T17:46:44.038Z,11.70
2022-08-17T17:49:14.453Z,19.00
2022-08-17T17:52:10.125Z,16.00
2022-08-17T17:54:52.886Z,19.20
2022-08-17T17:57:56.181Z,13.70
2022-08-17T18:00:25.078Z,15.30
2022-08-17T18:03:17.691Z,17.50
2022-08-17T18:05:52.382Z,13.90
2022-08-17T18:08:34.146Z,16.60
2022-08-17T18:11:24.359Z,17.60
2022-08-17T18:14:04.298Z,16.70
2022-08-17T18:16:33.165Z,16.30
2022-08-17T18:19:00.326Z,16.10
2022-08-17T18:21:38.470Z,18.60
2022-08-17T18:24:07.719Z,19.70
2022-08-17T18:26:35.489Z,12.40
2022-08-17T18:29:21.919Z,13.70
2022-08-17T18:31:49.138Z,16.50
2022-08-17T18:37:12.952Z,13.00
2022-08-17T18:39:44.260Z,11.70
2022-08-17T18:42:31.005Z,15.80
2022-08-17T18:44:58.383Z,14.20
2022-08-17T18:47:27.234Z,13.40
2022-08-17T18:49:59.730Z,14.40
2022-08-17T18:52:31.891Z,12.30
2022-08-17T18:55:11.450Z,15.50
2022-08-17T18:57:47.703Z,15.40
2022-08-17T19:00:40.739Z,15.10
2022-08-17T19:03:18.230Z,13.30
2022-08-17T19:05:46.604Z,11.20
2022-08-17T19:08:34.966Z,13.70
2022-08-17T19:11:17.988Z,17.40
2022-08-17T19:16:38.500Z,13.30
2022-08-17T19:19:10.080Z,14.20
2022-08-17T19:21:59.291Z,14.00
2022-08-17T19:24:27.951Z,15.00
2022-08-17T19:27:14.918Z,13.50
2022-08-17T19:29:55.609Z,16.80
2022-08-17T19:32:26.204Z,15.40
2022-08-17T19:34:53.515Z,15.70
2022-08-17T19:37:47.447Z,13.60
2022-08-17T19:40:54.682Z,17.70
2022-08-17T19:43:48.697Z,14.50
2022-08-17T19:47:10.526Z,15.30
2022-08-17T19:49:52.839Z,14.60
2022-08-17T19:52:46.816Z,18.60
2022-08-17T19:55:48.478Z,15.70
2022-08-17T19:58:35.525Z,17.60
2022-08-17T20:01:02.781Z,13.90
2022-08-17T20:03:49.759Z,14.00
2022-08-17T20:06:17.015Z,15.80
2022-08-17T20:09:12.967Z,13.70
2022-08-17T20:11:47.383Z,14.00
2022-08-17T20:14:20.710Z,14.80
2022-08-17T20:16:49.130Z,16.90
2022-08-17T20:19:38.223Z,17.50
2022-08-17T20:22:08.414Z,17.30
2022-08-17T20:24:40.413Z,17.10
2022-08-17T20:27:31.721Z,14.10
2022-08-17T20:30:11.225Z,13.70
2022-08-17T20:32:55.996Z,14.10
2022-08-17T20:35:53.661Z,16.80
2022-08-17T20:38:57.365Z,15.70
2022-08-17T20:41:30.867Z,15.10
2022-08-17T20:43:58.740Z,10.70
2022-08-17T20:46:38.586Z,16.30
2022-08-17T20:49:08.956Z,13.10
2022-08-17T20:52:01.382Z,11.60
2022-08-17T20:54:29.233Z,13.90
2022-08-17T20:56:58.019Z,9.10
2022-08-17T20:59:30.596Z,9.20
2022-08-17T21:02:17.723Z,12.10
2022-08-17T21:04:56.827Z,13.50
2022-08-17T21:07:33.068Z,20.00
2022-08-17T21:10:11.813Z,12.60
2022-08-17T21:13:08.555Z,10.30
2022-08-17T21:15:57.021Z,10.70
2022-08-17T21:19:03.408Z,11.70
2022-08-17T21:21:49.367Z,9.90
2022-08-17T21:24:35.461Z,11.30
2022-08-17T21:27:09.469Z,10.70
2022-08-17T21:29:40.318Z,9.90
2022-08-17T21:32:09.593Z,9.70
2022-08-17T21:34:44.278Z,10.70
2022-08-17T21:43:45.510Z,7.60
2022-08-17T21:46:47.113Z,11.80
2022-08-17T21:49:19.398Z,11.80
2022-08-17T21:52:03.978Z,13.40
2022-08-17T21:54:44.652Z,11.90
2022-08-17T21:57:22.761Z,12.70
2022-08-17T21:59:55.378Z,13.10
2022-08-17T22:02:29.764Z,11.00
2022-08-17T22:04:59.118Z,8.20
2022-08-17T22:07:44.183Z,10.40
2022-08-17T22:10:33.235Z,8.80
2022-08-17T22:13:17.066Z,9.90
2022-08-17T22:15:50.568Z,8.70
2022-08-17T22:18:25.705Z,13.00
2022-08-17T22:20:56.101Z,8.60
2022-08-17T22:23:43.751Z,9.20
2022-08-17T22:26:13.478Z,8.70
2022-08-17T22:28:42.428Z,10.50
2022-08-17T22:31:14.496Z,11.90
2022-08-17T22:33:47.501Z,8.40
2022-08-17T22:36:34.626Z,10.40
2022-08-17T22:39:02.765Z,9.70
2022-08-17T22:41:34.790Z,12.70
2022-08-17T22:44:26.146Z,9.90
2022-08-17T22:47:03.025Z,9.30
2022-08-17T22:49:58.192Z,12.10
2022-08-17T22:52:32.568Z,11.90
2022-08-17T22:55:25.922Z,12.80
2022-08-17T22:58:11.818Z,9.70
2022-08-17T23:00:40.211Z,13.50
2022-08-17T23:03:12.329Z,12.20
2022-08-17T23:05:42.218Z,9.60
2022-08-17T23:08:11.674Z,10.90
2022-08-17T23:10:41.568Z,9.60
2022-08-17T23:13:12.173Z,11.20
2022-08-17T23:15:40.860Z,10.70
2022-08-17T23:18:08.369Z,10.80
2022-08-17T23:20:39.645Z,10.40
2022-08-17T23:23:09.370Z,11.50
2022-08-17T23:25:36.973Z,14.70
2022-08-17T23:28:05.658Z,12.90
2022-08-17T23:30:35.420Z,11.00
2022-08-17T23:33:05.913Z,13.90
2022-08-17T23:35:39.845Z,11.80
2022-08-17T23:38:10.437Z,15.00
2022-08-17T23:40:39.582Z,11.20
2022-08-17T23:43:23.623Z,11.00
2022-08-17T23:45:53.933Z,9.90
2022-08-17T23:48:35.227Z,12.40
2022-08-17T23:51:10.466Z,8.50
2022-08-17T23:53:37.802Z,8.80
2022-08-17T23:56:10.260Z,14.50
2022-08-17T23:58:42.490Z,11.20
